Time;durP1;ratioP1;P1;durP2;ratioP2;P2;SDS_P1;SDS_P2;PMS_P1;PMS_P2;Temp;Humidity;BMP_temperature;BMP_pressure;BME280_temperature;BME280_humidity;BME280_pressure;Samples;Min_cycle;Max_cycle;Signal;HPM_P1;HPM_P2
2022/07/02 00:00:59;;;;;;;6.25;2.40;;;;;;;26.07;54.95;100584.41;2099579;28;20518;-74
2022/07/02 00:02:21;;;;;;;5.85;3.28;;;;;;;26.07;54.90;100570.88;2101334;28;20409;-74
2022/07/02 00:03:51;;;;;;;8.20;2.40;;;;;;;26.08;55.19;100572.63;2100412;28;20109;-74
2022/07/02 00:05:15;;;;;;;5.55;1.90;;;;;;;26.08;54.93;100576.22;2102768;28;20183;-74
2022/07/02 00:06:39;;;;;;;8.25;2.22;;;;;;;26.12;54.92;100594.03;2094740;28;20056;-73
2022/07/02 00:08:03;;;;;;;5.35;2.10;;;;;;;26.13;54.76;100584.97;2095359;28;20055;-73
2022/07/02 00:09:27;;;;;;;7.15;2.67;;;;;;;26.14;54.86;100588.53;2101190;28;20063;-74
2022/07/02 00:10:51;;;;;;;7.40;2.63;;;;;;;26.13;54.79;100594.91;2102940;28;20052;-74
2022/07/02 00:12:14;;;;;;;8.90;2.60;;;;;;;26.13;54.82;100594.91;2102590;28;20062;-74
2022/07/02 00:13:37;;;;;;;8.32;2.40;;;;;;;26.13;54.69;100594.91;2103749;28;20056;-73
2022/07/02 00:15:00;;;;;;;6.30;2.13;;;;;;;26.12;54.72;100594.03;2102783;28;20121;-74
2022/07/02 00:16:24;;;;;;;5.28;2.13;;;;;;;26.12;55.16;100593.19;2102954;28;20043;-74
2022/07/02 00:17:46;;;;;;;12.20;2.92;;;;;;;26.10;54.84;100587.84;2101826;28;20117;-74
2022/07/02 00:19:08;;;;;;;5.47;2.30;;;;;;;26.09;55.15;100599.63;2105224;28;20048;-74
2022/07/02 00:20:31;;;;;;;7.85;2.85;;;;;;;26.09;55.14;100596.91;2102802;28;20113;-74
2022/07/02 00:21:56;;;;;;;5.30;2.13;;;;;;;26.08;54.99;100592.44;2103601;28;20076;-74
2022/07/02 00:23:18;;;;;;;5.20;2.40;;;;;;;26.06;55.24;100597.06;2102236;28;20465;-74
2022/07/02 00:24:41;;;;;;;7.90;2.25;;;;;;;26.06;55.38;100602.47;2098639;28;20064;-74
2022/07/02 00:26:09;;;;;;;4.78;2.30;;;;;;;26.07;55.40;100600.63;2099091;28;20567;-74
2022/07/02 00:27:32;;;;;;;8.32;2.47;;;;;;;26.06;55.51;100598.88;2103331;28;20047;-74
2022/07/02 00:29:01;;;;;;;7.43;2.92;;;;;;;26.06;55.50;100588.06;2097534;28;20049;-74
2022/07/02 00:30:23;;;;;;;7.30;2.47;;;;;;;26.04;55.58;100590.00;2091475;28;20045;-74
2022/07/02 00:31:48;;;;;;;9.65;3.17;;;;;;;26.03;55.61;100591.81;2093738;28;20063;-74
2022/07/02 00:33:13;;;;;;;6.22;2.28;;;;;;;26.02;55.55;100586.47;2103495;28;20452;-74
2022/07/02 00:34:38;;;;;;;11.27;3.40;;;;;;;26.04;55.33;100590.00;2102703;28;20040;-73
2022/07/02 00:36:00;;;;;;;7.65;2.60;;;;;;;26.03;55.63;100593.66;2103634;28;20056;-73
2022/07/02 00:37:22;;;;;;;8.43;2.50;;;;;;;26.04;55.34;100590.00;2094591;28;20045;-74
2022/07/02 00:38:45;;;;;;;9.55;2.75;;;;;;;26.02;55.42;100592.75;2095119;28;20059;-74
2022/07/02 00:40:10;;;;;;;8.93;2.67;;;;;;;26.03;55.53;100597.22;2101198;28;20539;-74
2022/07/02 00:41:33;;;;;;;7.07;2.38;;;;;;;26.02;55.45;100592.75;2095194;28;20393;-74
2022/07/02 00:42:55;;;;;;;8.48;2.65;;;;;;;26.02;55.36;100603.59;2087784;28;20049;-74
2022/07/02 00:44:18;;;;;;;6.03;2.42;;;;;;;25.99;55.55;100587.50;2102174;28;20052;-73
2022/07/02 00:45:41;;;;;;;7.03;2.63;;;;;;;25.98;55.65;100604.72;2095250;28;20497;-74
2022/07/02 00:47:05;;;;;;;7.63;2.42;;;;;;;25.98;55.65;100596.59;2101953;28;20057;-74
2022/07/02 00:48:29;;;;;;;9.18;2.22;;;;;;;25.98;55.55;100603.84;2097369;28;20041;-73
2022/07/02 00:49:51;;;;;;;9.40;3.95;;;;;;;25.96;55.75;100598.50;2102068;28;20135;-74
2022/07/02 00:51:13;;;;;;;8.23;2.63;;;;;;;25.96;55.92;100605.72;2103091;28;20067;-74
2022/07/02 00:52:35;;;;;;;9.43;3.30;;;;;;;25.94;56.01;100594.09;2102493;28;20052;-74
2022/07/02 00:53:57;;;;;;;8.68;2.28;;;;;;;25.93;55.96;100595.91;2103161;28;20531;-74
2022/07/02 00:55:21;;;;;;;9.35;2.80;;;;;;;25.93;55.92;100604.03;2102703;28;20091;-73
2022/07/02 00:56:43;;;;;;;8.60;2.53;;;;;;;25.91;56.07;100611.38;2097778;28;20070;-74
2022/07/02 00:58:05;;;;;;;6.00;2.90;;;;;;;25.90;56.29;100601.50;2104586;28;20032;-74
2022/07/02 00:59:27;;;;;;;9.85;2.55;;;;;;;25.91;56.00;100605.09;2102081;28;20047;-74
2022/07/02 01:00:50;;;;;;;6.07;3.10;;;;;;;25.90;56.04;100597.91;2100123;28;20044;-74
2022/07/02 01:02:13;;;;;;;8.35;2.95;;;;;;;25.88;56.32;100599.81;2103214;28;20040;-74
2022/07/02 01:03:35;;;;;;;12.32;2.80;;;;;;;25.89;56.17;100601.56;2103213;28;20052;-73
2022/07/02 01:05:00;;;;;;;6.75;2.35;;;;;;;25.89;56.35;100601.56;2103363;28;20131;-74
2022/07/02 01:06:24;;;;;;;8.82;2.63;;;;;;;25.89;56.07;100597.03;2095205;28;20040;-74
2022/07/02 01:10:16;;;;;;;10.25;2.70;;;;;;;25.88;56.42;100595.28;2103112;28;20113;-74
2022/07/02 01:11:14;;;;;;;4.05;1.88;;;;;;;25.85;56.66;100594.56;2105194;28;20409;-73
2022/07/02 01:12:42;;;;;;;12.60;4.03;;;;;;;25.85;56.74;100583.75;2101693;28;20981;-73
2022/07/02 01:14:04;;;;;;;9.10;2.60;;;;;;;25.84;56.56;100601.81;2097423;28;20040;-73
2022/07/02 01:15:28;;;;;;;11.23;3.00;;;;;;;25.85;56.48;100591.88;2101040;28;20119;-74
2022/07/02 01:16:49;;;;;;;11.80;3.75;;;;;;;25.85;56.71;100595.47;2105908;28;20051;-74
2022/07/02 01:18:17;;;;;;;6.25;2.85;;;;;;;25.85;56.68;100595.47;2102151;28;20063;-74
2022/07/02 01:19:40;;;;;;;8.18;2.80;;;;;;;25.85;56.41;100600.88;2100486;28;20420;-74
2022/07/02 01:21:03;;;;;;;5.40;2.58;;;;;;;25.85;56.45;100595.47;2101743;28;20520;-74
2022/07/02 01:22:33;;;;;;;6.50;2.38;;;;;;;25.83;56.73;100583.81;2102892;28;20072;-73
2022/07/02 01:23:55;;;;;;;3.58;2.67;;;;;;;25.83;56.57;100594.66;2101389;28;20052;-73
2022/07/02 01:25:17;;;;;;;10.43;2.25;;;;;;;25.83;56.56;100580.25;2100309;28;20044;-74
2022/07/02 01:26:40;;;;;;;8.35;2.60;;;;;;;25.83;56.61;100581.13;2102314;28;20582;-74
2022/07/02 01:28:02;;;;;;;16.67;2.92;;;;;;;25.83;56.57;100585.66;2101965;28;20531;-74
2022/07/02 01:29:23;;;;;;;8.52;3.47;;;;;;;25.85;56.55;100583.75;2101865;28;20112;-74
2022/07/02 01:30:46;;;;;;;7.50;2.55;;;;;;;25.83;56.76;100591.94;2102728;28;20048;-74
2022/07/02 01:32:09;;;;;;;7.15;2.83;;;;;;;25.83;56.49;100586.53;2104709;28;20114;-74
2022/07/02 01:33:32;;;;;;;9.07;2.92;;;;;;;25.85;56.58;100591.88;2097330;28;20041;-73
2022/07/02 01:35:04;;;;;;;10.32;3.00;;;;;;;25.84;56.46;100593.69;2101491;28;20048;-74
2022/07/02 01:36:25;;;;;;;12.73;2.97;;;;;;;25.82;56.71;100590.19;2100955;28;20131;-73
2022/07/02 01:37:50;;;;;;;9.07;3.75;;;;;;;25.82;56.82;100592.00;2102930;28;20504;-73
2022/07/02 01:39:11;;;;;;;6.57;2.70;;;;;;;25.81;56.82;100599.25;2101878;28;20044;-73
2022/07/02 01:40:33;;;;;;;7.82;2.40;;;;;;;25.79;56.57;100599.34;2101012;28;20127;-73
2022/07/02 01:41:55;;;;;;;5.93;2.85;;;;;;;25.78;56.81;100596.72;2102301;28;20460;-73
2022/07/02 01:43:17;;;;;;;5.50;2.35;;;;;;;25.78;56.98;100599.41;2100092;28;20048;-73
2022/07/02 01:44:39;;;;;;;6.03;2.33;;;;;;;25.78;56.80;100594.00;2101225;28;20047;-74
2022/07/02 01:46:02;;;;;;;8.05;2.92;;;;;;;25.78;56.88;100588.59;2102750;28;20044;-73
2022/07/02 01:47:23;;;;;;;11.52;2.65;;;;;;;25.77;56.85;100598.53;2104135;28;20086;-74
2022/07/02 01:48:46;;;;;;;7.63;2.70;;;;;;;25.76;56.93;100582.38;2101965;28;20131;-74
2022/07/02 01:50:09;;;;;;;6.00;2.20;;;;;;;25.75;57.15;100583.31;2102827;28;20087;-73
2022/07/02 01:51:31;;;;;;;5.13;2.28;;;;;;;25.75;57.19;100584.22;2088878;28;20057;-73
2022/07/02 01:52:56;;;;;;;8.52;2.33;;;;;;;25.77;57.10;100601.25;2096917;28;20055;-74
2022/07/02 01:54:17;;;;;;;8.65;2.50;;;;;;;25.77;56.83;100600.38;2101242;28;20117;-73
2022/07/02 01:55:40;;;;;;;8.52;2.30;;;;;;;25.76;57.26;100602.19;2095764;28;20052;-74
2022/07/02 01:57:03;;;;;;;7.57;2.70;;;;;;;25.78;57.14;100602.13;2093094;28;20048;-74
2022/07/02 01:58:26;;;;;;;8.88;2.58;;;;;;;25.78;56.91;100589.47;2094558;28;20096;-73
2022/07/02 01:59:49;;;;;;;4.82;2.50;;;;;;;25.80;56.83;100603.78;2093352;28;20163;-74
2022/07/02 02:01:10;;;;;;;4.47;2.35;;;;;;;25.80;56.86;100595.66;2099550;28;20127;-74
2022/07/02 02:02:33;;;;;;;3.85;2.28;;;;;;;25.81;56.71;100591.13;2104387;28;20044;-73
2022/07/02 02:03:54;;;;;;;7.45;2.63;;;;;;;25.83;56.91;100591.94;2094116;28;20683;-74
2022/07/02 02:05:17;;;;;;;6.18;2.42;;;;;;;25.82;56.79;100590.19;2091246;28;20066;-74
2022/07/02 02:06:38;;;;;;;7.85;2.75;;;;;;;25.80;56.67;100592.97;2099114;28;20135;-74
2022/07/02 02:08:03;;;;;;;6.65;2.42;;;;;;;25.80;56.81;100592.97;2097044;28;20154;-74
2022/07/02 02:09:25;;;;;;;6.53;2.50;;;;;;;25.80;56.57;100602.91;2100996;28;20043;-74
2022/07/02 02:10:47;;;;;;;9.45;2.72;;;;;;;25.78;56.60;100600.31;2101341;28;20060;-74
2022/07/02 02:12:10;;;;;;;11.52;2.55;;;;;;;25.78;56.64;100607.53;2101794;28;20044;-74
2022/07/02 02:13:31;;;;;;;8.88;3.95;;;;;;;25.78;56.81;100604.84;2102889;28;20043;-74
2022/07/02 02:14:54;;;;;;;5.53;2.28;;;;;;;25.78;56.97;100610.25;2102288;28;20054;-74
2022/07/02 02:16:15;;;;;;;8.48;2.65;;;;;;;25.79;56.87;100614.69;2096394;28;20905;-74
2022/07/02 02:17:37;;;;;;;8.55;2.67;;;;;;;25.78;56.91;100603.00;2096854;28;20110;-73
2022/07/02 02:18:59;;;;;;;9.27;2.60;;;;;;;25.77;57.03;100606.66;2102364;28;20079;-74
2022/07/02 02:20:22;;;;;;;;;;;;;;;25.74;57.41;100612.19;2101905;28;20040;-73
2022/07/02 02:21:44;;;;;;;6.43;2.75;;;;;;;25.72;57.62;100606.00;2101098;28;19920;-74
2022/07/02 02:23:07;;;;;;;8.98;2.80;;;;;;;25.74;57.45;100616.72;2100681;28;20462;-74
2022/07/02 02:24:30;;;;;;;8.40;2.67;;;;;;;25.72;57.62;100616.84;2094136;28;20063;-74
2022/07/02 02:25:51;;;;;;;6.65;2.50;;;;;;;25.71;58.15;100616.91;2085513;28;20036;-73
2022/07/02 02:27:14;;;;;;;7.32;3.10;;;;;;;25.70;58.34;100609.72;2091523;28;20063;-74
2022/07/02 02:28:37;;;;;;;6.10;2.60;;;;;;;25.69;58.54;100614.25;2094340;28;20079;-73
2022/07/02 02:29:59;;;;;;;7.90;2.53;;;;;;;25.69;58.54;100616.97;2096122;28;20539;-73
2022/07/02 02:31:22;;;;;;;9.48;2.28;;;;;;;25.68;58.34;100606.22;2097775;28;20115;-74
2022/07/02 02:32:44;;;;;;;7.80;2.78;;;;;;;25.66;58.70;100609.03;2094417;28;20078;-74
2022/07/02 02:34:06;;;;;;;8.70;2.50;;;;;;;25.65;58.72;100607.25;2097873;28;20044;-74
2022/07/02 02:35:28;;;;;;;5.63;2.67;;;;;;;25.64;58.71;100607.34;2094038;28;20076;-73
2022/07/02 02:36:49;;;;;;;9.68;2.30;;;;;;;25.62;58.72;100611.94;2094215;28;20051;-74
2022/07/02 02:38:14;;;;;;;7.13;2.30;;;;;;;25.63;58.46;100605.56;2094027;28;20056;-74
2022/07/02 02:39:35;;;;;;;6.82;2.38;;;;;;;25.59;58.58;100602.16;2101333;28;20503;-74
2022/07/02 02:40:58;;;;;;;8.02;2.63;;;;;;;25.57;58.74;100606.75;2093716;28;20656;-74
2022/07/02 02:42:20;;;;;;;7.55;2.13;;;;;;;25.55;58.79;100595.09;2100657;28;20063;-74
2022/07/02 02:43:43;;;;;;;8.23;2.80;;;;;;;25.54;58.92;100598.75;2098790;28;20052;-73
2022/07/02 02:45:05;;;;;;;10.52;3.00;;;;;;;25.53;58.96;100605.13;2102357;28;20504;-74
2022/07/02 02:46:28;;;;;;;6.80;2.47;;;;;;;25.53;59.05;100604.25;2100081;28;20044;-73
2022/07/02 02:47:49;;;;;;;9.75;2.63;;;;;;;25.51;58.80;100606.16;2093888;28;20155;-74
2022/07/02 02:49:11;;;;;;;6.85;2.78;;;;;;;25.51;58.87;100611.56;2091375;28;20278;-73
2022/07/02 02:50:34;;;;;;;5.88;2.15;;;;;;;25.49;59.18;100613.44;2093850;28;20449;-73
2022/07/02 02:51:56;;;;;;;7.72;2.78;;;;;;;25.48;59.21;100604.44;2101530;28;20052;-74
2022/07/02 02:53:19;;;;;;;7.53;3.22;;;;;;;25.48;58.91;100607.16;2102251;28;20079;-73
2022/07/02 02:54:42;;;;;;;6.47;2.53;;;;;;;25.48;59.26;100611.69;2099968;28;20766;-73
2022/07/02 02:56:05;;;;;;;6.45;2.45;;;;;;;25.48;59.33;100608.97;2093966;28;20044;-74
2022/07/02 02:57:27;;;;;;;10.90;2.95;;;;;;;25.48;59.33;100606.28;2102485;28;20075;-73
2022/07/02 02:58:50;;;;;;;9.80;3.30;;;;;;;25.46;59.36;100603.66;2096552;28;20056;-74
2022/07/02 03:00:12;;;;;;;8.20;2.78;;;;;;;25.47;59.38;100610.81;2093548;28;20055;-73
2022/07/02 03:01:34;;;;;;;;;;;;;;;25.45;59.22;100617.25;2094606;28;20075;-74
2022/07/02 03:02:56;;;;;;;7.72;3.22;;;;;;;25.45;59.36;100617.25;2098382;28;20328;-74
2022/07/02 03:04:19;;;;;;;5.25;2.53;;;;;;;25.45;59.31;100614.56;2093881;28;20044;-74
2022/07/02 03:05:40;;;;;;;6.20;2.90;;;;;;;25.44;59.56;100615.50;2100362;28;20183;-74
2022/07/02 03:07:06;;;;;;;6.25;2.75;;;;;;;25.42;59.57;100608.34;2093007;28;20110;-74
2022/07/02 03:08:30;;;;;;;6.75;2.72;;;;;;;25.41;59.39;100621.91;2098836;28;20036;-74
2022/07/02 03:09:52;;;;;;;8.85;3.17;;;;;;;25.41;59.75;100611.97;2094063;28;20072;-73
2022/07/02 03:11:15;;;;;;;7.20;2.78;;;;;;;25.41;59.41;100614.69;2104679;28;20512;-74
2022/07/02 03:12:37;;;;;;;6.75;2.65;;;;;;;25.42;59.47;100626.38;2092170;28;20056;-74
2022/07/02 03:13:59;;;;;;;8.88;2.63;;;;;;;25.42;59.68;100619.16;2098855;28;20060;-74
2022/07/02 03:15:21;;;;;;;8.77;3.15;;;;;;;25.43;59.43;100617.31;2102153;28;20133;-73
2022/07/02 03:16:43;;;;;;;11.60;2.85;;;;;;;25.46;59.37;100614.50;2101649;28;20055;-74
2022/07/02 03:18:05;;;;;;;30.33;4.10;;;;;;;25.48;59.63;100627.91;2088389;28;20051;-74
2022/07/02 03:19:27;;;;;;;7.28;2.88;;;;;;;25.49;59.49;100624.25;2098608;28;20070;-74
2022/07/02 03:20:49;;;;;;;7.35;3.13;;;;;;;25.51;59.52;100628.66;2104563;28;20617;-73
2022/07/02 03:22:12;;;;;;;7.15;2.40;;;;;;;25.54;59.24;100631.19;2096570;28;20040;-73
2022/07/02 03:23:36;;;;;;;6.07;2.58;;;;;;;25.59;59.47;100631.03;2100131;28;20089;-73
2022/07/02 03:24:58;;;;;;;8.23;2.65;;;;;;;25.60;59.25;100632.78;2100491;28;20155;-74
2022/07/02 03:26:21;;;;;;;8.82;2.67;;;;;;;25.64;59.33;100632.56;2101945;28;20485;-74
2022/07/02 03:27:42;;;;;;;7.35;2.70;;;;;;;25.68;59.05;100630.56;2098501;28;20059;-73
2022/07/02 03:29:04;;;;;;;7.85;3.17;;;;;;;25.73;59.11;100620.41;2101186;28;20036;-73
2022/07/02 03:30:26;;;;;;;7.10;2.45;;;;;;;25.80;58.75;100629.94;2096982;28;20568;-74
2022/07/02 03:31:48;;;;;;;10.07;3.17;;;;;;;25.85;58.86;100638.75;2101992;28;20036;-73
2022/07/02 03:33:11;;;;;;;5.90;2.63;;;;;;;25.92;58.44;100637.47;2099268;28;20396;-73
2022/07/02 03:34:32;;;;;;;5.03;2.50;;;;;;;25.97;58.27;100626.41;2101802;28;20043;-73
2022/07/02 03:35:55;;;;;;;7.22;2.50;;;;;;;26.02;58.10;100629.78;2101989;28;20127;-73
2022/07/02 03:37:17;;;;;;;9.80;2.47;;;;;;;26.08;57.83;100635.75;2102136;28;20075;-74
2022/07/02 03:38:41;;;;;;;8.05;2.33;;;;;;;26.15;57.89;100631.78;2098620;28;20062;-73
2022/07/02 03:40:03;;;;;;;8.23;3.33;;;;;;;26.22;57.68;100632.34;2099792;28;20170;-74
2022/07/02 03:41:25;;;;;;;8.27;2.75;;;;;;;26.30;57.17;100629.28;2103995;28;20477;-73
2022/07/02 03:42:46;;;;;;;8.50;2.95;;;;;;;26.36;57.12;100635.25;2097337;28;20919;-74
2022/07/02 03:44:09;;;;;;;5.07;2.40;;;;;;;26.44;56.86;100637.56;2102181;28;20529;-73
2022/07/02 03:45:32;;;;;;;5.85;2.45;;;;;;;26.50;56.78;100632.72;2102175;28;20134;-74
2022/07/02 03:46:53;;;;;;;9.32;4.03;;;;;;;26.57;56.54;100633.25;2093575;28;20057;-74
2022/07/02 03:48:15;;;;;;;8.80;2.95;;;;;;;26.65;56.33;100631.00;2092875;28;20037;-73
2022/07/02 03:49:37;;;;;;;5.75;2.70;;;;;;;26.76;56.08;100634.03;2100220;28;20117;-74
2022/07/02 03:51:00;;;;;;;6.18;2.63;;;;;;;26.82;56.15;100641.84;2098916;28;20157;-73
2022/07/02 03:52:22;;;;;;;8.43;2.67;;;;;;;26.88;55.86;100637.91;2102016;28;20040;-74
2022/07/02 03:53:46;;;;;;;7.90;2.35;;;;;;;26.95;55.74;100639.38;2103503;28;20066;-74
2022/07/02 03:55:09;;;;;;;6.47;2.97;;;;;;;27.01;55.50;100641.75;2097870;28;20110;-74
2022/07/02 03:56:32;;;;;;;8.75;2.65;;;;;;;27.07;55.50;100641.41;2100893;28;20135;-74
2022/07/02 03:57:54;;;;;;;4.68;2.30;;;;;;;27.17;55.13;100631.84;2096515;28;20107;-74
2022/07/02 03:59:16;;;;;;;9.00;2.38;;;;;;;27.26;54.89;100650.28;2093650;28;20139;-73
2022/07/02 04:00:39;;;;;;;6.93;2.67;;;;;;;27.35;54.71;100641.66;2102639;28;20140;-73
2022/07/02 04:02:00;;;;;;;6.65;2.45;;;;;;;27.45;54.69;100647.41;2099133;28;20040;-74
2022/07/02 04:03:23;;;;;;;8.82;2.88;;;;;;;27.54;54.23;100643.34;2095908;28;20051;-74
2022/07/02 04:04:45;;;;;;;8.93;3.45;;;;;;;27.62;54.11;100636.53;2093659;28;20072;-74
2022/07/02 04:06:07;;;;;;;4.97;2.10;;;;;;;27.68;53.74;100641.63;2093756;28;20061;-74
2022/07/02 04:07:29;;;;;;;5.80;2.75;;;;;;;27.77;53.56;100648.34;2093621;28;20082;-74
2022/07/02 04:08:52;;;;;;;7.70;2.60;;;;;;;27.87;53.24;100640.56;2095573;28;20139;-73
2022/07/02 04:10:15;;;;;;;7.13;2.75;;;;;;;27.97;53.05;100647.19;2099716;28;20044;-74
2022/07/02 04:11:36;;;;;;;7.43;2.90;;;;;;;28.08;52.82;100650.16;2101941;28;20036;-73
2022/07/02 04:12:58;;;;;;;9.70;2.88;;;;;;;28.18;52.24;100650.50;2101993;28;20061;-73
2022/07/02 04:14:20;;;;;;;10.30;2.60;;;;;;;28.25;52.20;100646.47;2101515;28;20147;-74
2022/07/02 04:15:42;;;;;;;5.75;2.20;;;;;;;28.36;52.03;100652.13;2102118;28;20040;-73
2022/07/02 04:17:06;;;;;;;5.88;2.10;;;;;;;28.47;51.47;100652.38;2101879;28;20405;-74
2022/07/02 04:18:28;;;;;;;9.95;2.40;;;;;;;28.57;51.32;100653.56;2092327;28;20044;-73
2022/07/02 04:19:51;;;;;;;10.00;2.38;;;;;;;28.70;51.02;100654.56;2093635;28;20398;-73
2022/07/02 04:21:14;;;;;;;8.40;2.97;;;;;;;28.84;50.83;100661.91;2093619;28;20044;-73
2022/07/02 04:22:37;;;;;;;7.25;2.95;;;;;;;28.96;50.26;100652.09;2096350;28;20526;-73
2022/07/02 04:23:59;;;;;;;7.75;2.60;;;;;;;29.10;49.97;100655.72;2101761;28;20099;-74
2022/07/02 04:25:22;;;;;;;8.52;2.42;;;;;;;29.18;49.33;100657.97;2099721;28;20050;-74
2022/07/02 04:26:43;;;;;;;7.03;2.42;;;;;;;29.25;49.21;100653.88;2099817;28;20139;-74
2022/07/02 04:28:07;;;;;;;6.65;2.45;;;;;;;29.36;49.03;100651.38;2096139;28;20126;-73
2022/07/02 04:29:29;;;;;;;7.05;2.80;;;;;;;29.48;48.54;100657.84;2092735;28;20139;-74
2022/07/02 04:30:51;;;;;;;7.32;2.58;;;;;;;29.58;48.02;100654.47;2095730;28;20059;-74
2022/07/02 04:32:13;;;;;;;6.95;2.45;;;;;;;29.71;47.66;100651.81;2101593;28;20047;-74
2022/07/02 04:33:36;;;;;;;8.38;2.55;;;;;;;29.83;47.28;100656.44;2100952;28;20051;-74
2022/07/02 04:34:58;;;;;;;9.23;3.17;;;;;;;29.91;46.81;100656.81;2100727;28;20059;-74
2022/07/02 04:36:19;;;;;;;7.82;2.58;;;;;;;29.99;46.65;100665.41;2101093;28;20870;-73
2022/07/02 04:37:42;;;;;;;8.88;3.17;;;;;;;30.14;46.21;100668.03;2093599;28;20048;-73
2022/07/02 04:39:06;;;;;;;9.50;2.75;;;;;;;30.31;45.76;100652.31;2090799;28;20052;-74
2022/07/02 04:40:28;;;;;;;9.10;2.40;;;;;;;30.47;45.54;100657.56;2093773;28;20079;-73
2022/07/02 04:41:51;;;;;;;8.40;2.85;;;;;;;30.64;45.45;100668.25;2101020;28;20152;-74
2022/07/02 04:43:13;;;;;;;6.72;2.78;;;;;;;30.86;44.94;100668.47;2093822;28;20127;-74
2022/07/02 04:44:36;;;;;;;6.60;2.97;;;;;;;31.07;44.34;100660.66;2104423;28;20732;-74
2022/07/02 04:45:58;;;;;;;9.15;3.17;;;;;;;31.23;43.57;100663.19;2101548;28;20106;-74
2022/07/02 04:47:20;;;;;;;7.20;2.85;;;;;;;31.36;43.69;100665.88;2104473;28;20086;-73
2022/07/02 04:48:43;;;;;;;8.15;2.05;;;;;;;31.53;43.31;100662.78;2100860;28;20537;-74
2022/07/02 04:50:06;;;;;;;8.35;2.63;;;;;;;31.59;42.66;100663.25;2099601;28;20138;-74
2022/07/02 04:51:28;;;;;;;4.18;2.40;;;;;;;31.77;42.43;100660.16;2101896;28;20040;-74
2022/07/02 04:52:50;;;;;;;7.05;2.47;;;;;;;32.01;42.13;100661.06;2096875;28;20091;-74
2022/07/02 04:54:14;;;;;;;5.43;2.47;;;;;;;32.22;41.74;100659.47;2093538;28;20048;-74
2022/07/02 04:55:35;;;;;;;9.50;2.58;;;;;;;32.44;41.79;100664.13;2101604;28;20123;-74
2022/07/02 04:56:58;;;;;;;8.48;2.67;;;;;;;32.60;41.18;100661.09;2105498;28;20036;-74
2022/07/02 04:58:19;;;;;;;15.57;2.75;;;;;;;32.70;40.63;100656.66;2102559;28;20072;-74
2022/07/02 04:59:44;;;;;;;7.95;2.78;;;;;;;32.75;40.58;100651.75;2102892;28;20050;-75
2022/07/02 05:01:06;;;;;;;5.68;2.45;;;;;;;32.92;40.09;100654.00;2095714;28;20074;-75
2022/07/02 05:02:28;;;;;;;10.05;2.50;;;;;;;33.05;39.94;100648.41;2085522;28;20072;-73
2022/07/02 05:03:52;;;;;;;8.85;2.47;;;;;;;33.16;39.69;100657.50;2091918;28;20074;-75
2022/07/02 05:05:15;;;;;;;7.93;2.50;;;;;;;33.29;39.34;100667.50;2092005;28;20036;-75
2022/07/02 05:06:37;;;;;;;6.05;2.30;;;;;;;33.45;38.98;100662.53;2098741;28;20592;-74
2022/07/02 05:08:00;;;;;;;8.63;2.40;;;;;;;33.50;38.67;100663.91;2097105;28;20485;-74
2022/07/02 05:09:24;;;;;;;10.23;3.10;;;;;;;33.49;38.31;100666.75;2101183;28;20044;-74
2022/07/02 05:10:46;;;;;;;5.72;2.40;;;;;;;33.54;38.06;100668.09;2103238;28;20040;-75
2022/07/02 05:12:09;;;;;;;10.57;2.95;;;;;;;33.56;38.11;100660.66;2105291;28;20135;-75
2022/07/02 05:13:31;;;;;;;7.57;2.85;;;;;;;33.64;38.06;100657.28;2099497;28;20078;-75
2022/07/02 05:14:53;;;;;;;4.50;2.20;;;;;;;33.72;37.87;100652.09;2100233;28;20077;-75
2022/07/02 05:16:16;;;;;;;7.78;3.00;;;;;;;33.77;37.89;100654.44;2099588;28;20040;-73
2022/07/02 05:17:39;;;;;;;10.55;2.72;;;;;;;33.98;37.74;100653.53;2099033;28;20105;-74
2022/07/02 05:19:00;;;;;;;8.13;2.40;;;;;;;34.19;37.35;100660.94;2098089;28;20160;-74
2022/07/02 05:20:23;;;;;;;6.32;2.88;;;;;;;34.32;36.89;100658.94;2087141;28;20163;-74
2022/07/02 05:21:45;;;;;;;9.90;2.78;;;;;;;34.50;36.98;100665.56;2094888;28;20075;-74
2022/07/02 05:23:08;;;;;;;6.70;2.90;;;;;;;34.73;36.51;100669.09;2096765;28;20580;-74
2022/07/02 05:24:32;;;;;;;8.52;2.42;;;;;;;34.88;36.12;100656.78;2092805;28;20044;-74
2022/07/02 05:25:54;;;;;;;6.55;2.88;;;;;;;34.94;35.87;100652.63;2098305;28;20047;-73
2022/07/02 05:27:16;;;;;;;9.82;2.47;;;;;;;35.08;35.84;100650.41;2090600;28;20417;-74
2022/07/02 05:28:39;;;;;;;9.38;4.00;;;;;;;35.23;35.39;100655.56;2090963;28;20102;-75
2022/07/02 05:30:01;;;;;;;5.35;2.28;;;;;;;35.29;35.21;100658.63;2096856;28;20059;-74
2022/07/02 05:31:23;;;;;;;8.07;2.55;;;;;;;35.28;35.17;100659.66;2098555;28;20400;-74
2022/07/02 05:32:45;;;;;;;9.32;2.53;;;;;;;35.29;35.25;100666.88;2098896;28;20144;-74
2022/07/02 05:34:07;;;;;;;7.55;2.88;;;;;;;35.37;34.93;100661.56;2094173;28;20049;-74
2022/07/02 05:35:30;;;;;;;6.47;2.42;;;;;;;35.37;34.62;100655.22;2098705;28;20044;-75
2022/07/02 05:36:51;;;;;;;6.95;2.95;;;;;;;35.34;34.49;100659.09;2099016;28;20070;-75
2022/07/02 05:38:14;;;;;;;7.97;2.60;;;;;;;35.33;34.57;100660.09;2092451;28;20052;-74
2022/07/02 05:39:38;;;;;;;9.10;2.65;;;;;;;35.44;34.83;100665.50;2098033;28;20036;-74
2022/07/02 05:41:00;;;;;;;8.27;2.63;;;;;;;35.48;34.85;100666.97;2096808;28;20049;-74
2022/07/02 05:42:23;;;;;;;7.05;2.47;;;;;;;35.56;34.74;100663.53;2093317;28;20072;-74
2022/07/02 05:43:45;;;;;;;8.80;2.95;;;;;;;35.71;34.68;100661.31;2092884;28;20056;-75
2022/07/02 05:45:07;;;;;;;5.97;2.50;;;;;;;35.86;34.48;100659.88;2093525;28;20044;-75
2022/07/02 05:46:30;;;;;;;10.80;3.40;;;;;;;36.11;34.09;100663.97;2092306;28;20094;-75
2022/07/02 05:47:51;;;;;;;7.00;2.53;;;;;;;36.27;33.91;100664.31;2099442;28;20073;-74
2022/07/02 05:49:14;;;;;;;8.25;2.65;;;;;;;36.36;33.93;100674.47;2095577;28;20067;-75
2022/07/02 05:50:36;;;;;;;6.05;2.53;;;;;;;36.53;33.65;100667.38;2090955;28;20036;-74
2022/07/02 05:51:58;;;;;;;10.30;2.92;;;;;;;36.71;33.23;100665.66;2094200;28;20517;-75
2022/07/02 05:53:20;;;;;;;8.77;2.88;;;;;;;36.72;33.22;100672.88;2086273;28;20053;-75
2022/07/02 05:54:44;;;;;;;5.68;2.42;;;;;;;36.67;33.23;100669.72;2091470;28;20159;-74
2022/07/02 05:56:07;;;;;;;11.10;3.05;;;;;;;36.70;33.18;100669.41;2090449;28;20093;-74
2022/07/02 05:57:28;;;;;;;7.68;3.00;;;;;;;36.69;32.97;100659.44;2095360;28;20135;-74
2022/07/02 05:58:51;;;;;;;9.27;3.15;;;;;;;36.79;33.02;100664.91;2092219;28;20452;-74
2022/07/02 06:00:13;;;;;;;6.75;2.47;;;;;;;36.87;32.60;100670.56;2084111;28;20041;-74
2022/07/02 06:01:36;;;;;;;6.70;2.85;;;;;;;36.78;32.61;100674.19;2089813;28;20540;-75
2022/07/02 06:02:58;;;;;;;5.43;2.28;;;;;;;36.83;32.67;100652.56;2082474;28;20075;-75
2022/07/02 06:04:22;;;;;;;9.18;2.90;;;;;;;36.65;32.75;100663.47;2077642;28;20053;-75
2022/07/02 06:09:00;;;;;;;7.05;2.55;;;;;;;36.74;32.69;100662.63;2097479;28;20037;-74
2022/07/02 06:10:25;;;;;;;6.00;3.05;;;;;;;36.77;32.50;100655.94;2093117;28;20137;-74
2022/07/02 06:11:47;;;;;;;7.32;2.55;;;;;;;36.76;32.84;100659.72;2093516;28;20520;-74
2022/07/02 06:13:09;;;;;;;7.68;2.38;;;;;;;36.81;32.75;100663.75;2087918;28;20076;-74
2022/07/02 06:14:32;;;;;;;7.90;3.08;;;;;;;36.92;32.60;100657.22;2085433;28;20049;-74
2022/07/02 06:15:53;;;;;;;6.28;2.40;;;;;;;36.95;32.50;100654.19;2092976;28;20105;-74
2022/07/02 06:17:16;;;;;;;7.30;2.60;;;;;;;36.85;32.55;100662.44;2087905;28;20045;-74
2022/07/02 06:18:38;;;;;;;7.85;3.78;;;;;;;36.90;32.61;100662.84;2083521;28;20080;-74
2022/07/02 06:19:59;;;;;;;9.45;2.65;;;;;;;36.98;32.24;100674.00;2091063;28;20079;-73
2022/07/02 06:21:22;;;;;;;7.03;2.58;;;;;;;36.98;32.43;100662.13;2091063;28;20060;-73
2022/07/02 06:22:44;;;;;;;7.45;2.70;;;;;;;37.14;32.41;100667.06;2091800;28;20076;-74
2022/07/02 06:24:10;;;;;;;10.70;2.75;;;;;;;37.26;32.05;100672.22;2088290;28;20061;-73
2022/07/02 06:25:34;;;;;;;9.00;3.40;;;;;;;37.33;32.04;100667.84;2087510;28;20123;-74
2022/07/02 06:26:56;;;;;;;4.68;2.45;;;;;;;37.31;31.81;100674.53;2077027;28;20053;-74
2022/07/02 06:28:19;;;;;;;10.23;2.80;;;;;;;37.23;32.15;100674.41;2085724;28;20061;-74
2022/07/02 06:29:42;;;;;;;8.43;2.95;;;;;;;37.15;32.16;100669.66;2082812;28;20059;-73